Time;durP1;ratioP1;P1;durP2;ratioP2;P2;SDS_P1;SDS_P2;PMS_P1;PMS_P2;Temp;Humidity;BMP_temperature;BMP_pressure;BME280_temperature;BME280_humidity;BME280_pressure;Samples;Min_cycle;Max_cycle;Signal;HPM_P1;HPM_P2
2022/02/01 00:01:42;;;;;;;146.28;64.85;;;;;;;1.52;58.29;93250.66;1673642;83;21163;-47
2022/02/01 00:04:07;;;;;;;124.02;57.78;;;;;;;1.62;57.86;93253.09;1676667;84;21472;-47
2022/02/01 00:09:22;;;;;;;123.53;57.30;;;;;;;1.58;57.60;93251.07;1673931;83;21122;-47
2022/02/01 00:14:16;;;;;;;196.70;80.35;;;;;;;1.45;57.81;93251.59;1648972;83;21932;-48
2022/02/01 00:16:58;;;;;;;203.37;84.42;;;;;;;1.39;58.02;93253.30;1664961;84;20967;-46
2022/02/01 00:35:45;;;;;;;125.22;58.68;;;;;;;1.18;58.33;93260.57;1643687;83;21129;-46
2022/02/01 00:38:19;;;;;;;143.93;68.65;;;;;;;1.15;58.13;93251.94;1646923;86;21431;-47
2022/02/01 00:40:39;;;;;;;156.75;70.78;;;;;;;1.09;58.30;93265.05;1620682;88;21957;-47
2022/02/01 00:43:06;;;;;;;137.72;66.65;;;;;;;1.07;58.44;93260.08;1598278;87;21109;-49
2022/02/01 00:45:34;;;;;;;124.53;55.95;;;;;;;1.03;58.73;93274.88;1625797;87;21493;-46
2022/02/01 00:48:01;;;;;;;146.47;66.20;;;;;;;0.91;58.77;93268.77;1620183;87;21591;-46
2022/02/01 00:50:28;;;;;;;118.28;58.83;;;;;;;0.75;59.26;93265.46;1671265;83;21037;-46
2022/02/01 00:52:54;;;;;;;135.18;58.80;;;;;;;0.73;59.45;93267.05;1645978;86;21141;-47
2022/02/01 00:55:21;;;;;;;143.82;66.15;;;;;;;0.72;59.25;93269.02;1671310;84;21122;-47
2022/02/01 00:57:48;;;;;;;137.43;65.00;;;;;;;0.70;59.18;93267.32;1677269;84;21629;-47
2022/02/01 01:00:16;;;;;;;162.82;73.90;;;;;;;0.66;58.85;93269.34;1673542;83;21638;-47
2022/02/01 01:02:43;;;;;;;188.05;79.53;;;;;;;0.57;58.76;93271.85;1644022;86;21479;-46
2022/02/01 01:05:09;;;;;;;171.28;76.55;;;;;;;0.48;59.10;93264.91;1599085;89;21163;-47
2022/02/01 01:07:36;;;;;;;137.12;65.90;;;;;;;0.44;59.14;93257.44;1645664;85;21007;-48
2022/02/01 01:10:05;;;;;;;123.95;53.65;;;;;;;0.39;59.56;93259.91;1648013;86;20987;-48
2022/02/01 01:12:36;;;;;;;91.20;41.02;;;;;;;0.37;59.60;93269.77;1619755;88;21625;-47
2022/02/01 01:15:24;;;;;;;82.47;33.65;;;;;;;0.39;59.65;93262.00;1646004;86;21424;-47
2022/02/01 01:18:12;;;;;;;71.90;34.63;;;;;;;0.37;59.56;93259.56;1638678;86;21123;-48
2022/02/01 01:44:40;;;;;;;65.90;30.60;;;;;;;-0.53;60.90;93262.10;1642888;86;21178;-47
2022/02/01 01:55:17;;;;;;;90.40;34.75;;;;;;;-0.45;61.58;93268.91;1673636;83;21126;-47
2022/02/01 01:57:45;;;;;;;74.20;31.77;;;;;;;-0.41;61.52;93284.46;1642563;86;21166;-47
2022/02/01 02:00:28;;;;;;;39.98;19.67;;;;;;;-0.41;60.98;93280.41;1615527;87;21005;-47
2022/02/01 02:02:41;;;;;;;35.30;17.85;;;;;;;-0.47;60.55;93277.99;1642376;86;21052;-47
2022/02/01 02:05:08;;;;;;;44.70;22.42;;;;;;;-0.59;60.72;93273.21;1644149;86;21130;-47
2022/02/01 02:07:34;;;;;;;50.45;23.20;;;;;;;-0.66;60.64;93271.39;1645390;86;21050;-47
2022/02/01 02:10:03;;;;;;;50.25;25.10;;;;;;;-0.70;60.90;93263.95;1646297;85;21194;-47
2022/02/01 02:12:52;;;;;;;81.20;34.60;;;;;;;-0.68;61.15;93267.57;1645911;86;20957;-47
2022/02/01 02:14:59;;;;;;;77.20;35.28;;;;;;;-0.75;61.03;93272.50;1621863;86;21016;-48
2022/02/01 02:17:26;;;;;;;78.35;34.38;;;;;;;-0.93;61.29;93273.98;1644833;85;21040;-48
2022/02/01 02:19:53;;;;;;;114.62;49.48;;;;;;;-1.00;61.56;93285.64;1644541;84;20955;-47
2022/02/01 02:22:21;;;;;;;109.00;44.88;;;;;;;-1.05;61.62;93286.69;1674029;84;22044;-47
2022/02/01 02:24:47;;;;;;;82.85;36.80;;;;;;;-1.07;61.88;93294.43;1649725;86;21448;-47
2022/02/01 02:27:14;;;;;;;86.53;39.50;;;;;;;-1.16;61.78;93288.80;1620144;86;21050;-47
2022/02/01 02:29:40;;;;;;;80.10;35.92;;;;;;;-1.24;62.13;93291.41;1643970;86;21606;-47
2022/02/01 02:32:08;;;;;;;78.45;36.28;;;;;;;-1.31;62.47;93292.27;1644602;86;20948;-47
2022/02/01 02:34:34;;;;;;;69.87;30.75;;;;;;;-1.31;63.09;93288.23;1646125;86;21137;-47
2022/02/01 02:37:06;;;;;;;67.00;30.15;;;;;;;-1.23;63.03;93280.23;1649138;85;21448;-48
2022/02/01 02:39:33;;;;;;;37.40;19.17;;;;;;;-1.27;62.59;93284.92;1621454;86;20956;-48
2022/02/01 02:42:12;;;;;;;32.95;16.57;;;;;;;-1.37;62.56;93285.82;1644418;84;20984;-48
2022/02/01 02:47:25;;;;;;;75.32;35.28;;;;;;;-1.56;62.69;93284.35;1673278;83;21220;-47
2022/02/01 02:49:53;;;;;;;75.47;36.42;;;;;;;-1.74;62.88;93290.56;1673201;83;21105;-47
2022/02/01 02:52:19;;;;;;;92.70;40.80;;;;;;;-1.91;63.12;93292.14;1677642;83;21065;-46
2022/02/01 02:54:46;;;;;;;83.90;41.30;;;;;;;-2.09;63.41;93288.33;1644784;86;21087;-47
2022/02/01 02:57:13;;;;;;;99.55;45.55;;;;;;;-2.16;63.92;93289.73;1599624;88;20948;-47
2022/02/01 02:59:40;;;;;;;81.75;39.45;;;;;;;-2.19;64.25;93295.94;1618815;86;21983;-47
2022/02/01 03:02:07;;;;;;;96.65;44.65;;;;;;;-2.15;64.64;93299.34;1643530;84;21156;-47
2022/02/01 03:04:35;;;;;;;115.30;50.45;;;;;;;-2.13;64.25;93313.17;1649338;85;21102;-48
2022/02/01 03:07:04;;;;;;;89.10;43.65;;;;;;;-2.15;64.38;93314.16;1618079;87;21118;-46
2022/02/01 03:09:32;;;;;;;96.05;45.08;;;;;;;-2.13;64.74;93319.91;1615952;87;21009;-49
2022/02/01 03:12:01;;;;;;;115.47;49.45;;;;;;;-2.02;64.56;93324.60;1625830;86;21160;-47
2022/02/01 03:14:52;;;;;;;122.25;52.05;;;;;;;-1.89;64.54;93324.83;1608298;87;21163;-47
2022/02/01 03:19:53;;;;;;;69.67;31.40;;;;;;;-1.81;63.70;93319.56;1610735;86;20963;-47
2022/02/01 03:22:21;;;;;;;67.12;29.37;;;;;;;-1.87;63.46;93324.63;1676173;83;21530;-47
2022/02/01 03:24:49;;;;;;;96.37;46.70;;;;;;;-1.89;63.63;93324.27;1643531;86;21223;-48
2022/02/01 03:27:15;;;;;;;90.97;45.65;;;;;;;-1.95;63.36;93331.24;1672321;84;20975;-47
2022/02/01 03:29:42;;;;;;;81.08;38.42;;;;;;;-2.14;63.41;93329.15;1640453;86;21009;-48
2022/02/01 03:32:10;;;;;;;99.15;45.17;;;;;;;-2.22;63.84;93335.79;1674968;83;21093;-46
2022/02/01 03:34:36;;;;;;;98.72;45.78;;;;;;;-2.27;63.70;93332.77;1673967;83;20963;-47
2022/02/01 03:37:04;;;;;;;90.67;44.58;;;;;;;-2.33;63.88;93333.03;1678504;83;21516;-48
2022/02/01 03:39:32;;;;;;;89.22;43.80;;;;;;;-2.32;64.03;93331.27;1677981;83;21062;-47
2022/02/01 03:42:00;;;;;;;88.78;41.20;;;;;;;-2.36;64.13;93333.23;1675929;83;21046;-47
2022/02/01 03:44:30;;;;;;;88.05;40.63;;;;;;;-2.35;64.45;93334.77;1672873;83;21003;-47
2022/02/01 03:47:06;;;;;;;108.95;47.93;;;;;;;-2.43;64.15;93344.09;1675722;83;21003;-47
2022/02/01 03:49:34;;;;;;;165.30;74.80;;;;;;;-2.52;64.44;93341.08;1639808;86;21044;-48
2022/02/01 03:52:00;;;;;;;140.32;62.50;;;;;;;-2.52;65.01;93333.00;1618225;88;20951;-48
2022/02/01 03:54:29;;;;;;;81.08;34.75;;;;;;;-2.33;65.14;93345.89;1626332;86;21121;-48
2022/02/01 03:56:56;;;;;;;73.50;35.60;;;;;;;-2.30;64.13;93342.40;1646838;86;20996;-48
2022/02/01 03:59:23;;;;;;;87.85;43.70;;;;;;;-2.45;64.23;93339.69;1640937;86;21001;-47
2022/02/01 04:01:57;;;;;;;103.67;50.90;;;;;;;-2.48;64.59;93349.88;1672357;83;21151;-47
2022/02/01 04:04:26;;;;;;;115.08;47.27;;;;;;;-2.47;64.42;93347.37;1673267;83;21066;-47
2022/02/01 04:06:52;;;;;;;103.40;47.48;;;;;;;-2.44;64.61;93345.81;1673327;83;21062;-47
2022/02/01 04:09:21;;;;;;;80.87;37.42;;;;;;;-2.34;64.58;93338.98;1673382;83;21100;-48
2022/02/01 04:11:48;;;;;;;101.22;47.38;;;;;;;-2.37;64.17;93349.20;1678473;83;21121;-47
2022/02/01 04:14:20;;;;;;;96.57;46.23;;;;;;;-2.58;64.39;93356.14;1677242;83;21325;-48
2022/02/01 04:16:44;;;;;;;96.87;43.08;;;;;;;-2.62;64.75;93359.45;1670591;84;21113;-47
2022/02/01 04:19:12;;;;;;;88.22;42.73;;;;;;;-2.68;64.52;93369.09;1663662;83;21125;-47
2022/02/01 04:21:43;;;;;;;92.00;42.43;;;;;;;-2.79;64.67;93368.43;1630487;86;21031;-47
2022/02/01 04:24:07;;;;;;;101.75;47.83;;;;;;;-2.85;64.88;93369.25;1613114;87;21050;-47
2022/02/01 04:26:34;;;;;;;100.40;45.10;;;;;;;-2.83;65.42;93362.89;1677531;83;21169;-47
2022/02/01 04:29:01;;;;;;;98.03;43.48;;;;;;;-2.69;65.48;93364.88;1674037;83;20986;-46
2022/02/01 04:31:27;;;;;;;72.62;34.65;;;;;;;-2.63;65.28;93359.27;1625324;87;20964;-47
2022/02/01 04:33:54;;;;;;;57.17;30.68;;;;;;;-2.66;65.02;93368.11;1621855;86;21443;-47
2022/02/01 04:36:20;;;;;;;72.60;33.92;;;;;;;-2.80;65.12;93370.94;1676191;83;21431;-48
2022/02/01 04:38:56;;;;;;;73.87;33.75;;;;;;;-2.81;65.46;93378.83;1640526;86;21919;-47
2022/02/01 04:41:15;;;;;;;68.72;32.28;;;;;;;-2.78;65.12;93379.38;1594306;89;21136;-47
2022/02/01 04:43:42;;;;;;;84.65;40.33;;;;;;;-2.85;65.05;93386.13;1596144;88;21493;-47
2022/02/01 04:46:09;;;;;;;94.17;44.95;;;;;;;-2.95;65.23;93382.18;1600305;87;20998;-47
2022/02/01 04:48:36;;;;;;;78.90;40.35;;;;;;;-2.96;65.59;93376.05;1647686;86;20956;-47
2022/02/01 04:51:03;;;;;;;151.25;67.37;;;;;;;-2.85;66.12;93387.48;1642552;86;21192;-48
2022/02/01 04:53:29;;;;;;;59.77;32.38;;;;;;;-2.79;65.82;93384.58;1650188;86;21007;-48
2022/02/01 04:55:56;;;;;;;64.90;31.00;;;;;;;-2.80;65.71;93387.08;1640444;86;21511;-47
2022/02/01 04:58:24;;;;;;;55.28;26.65;;;;;;;-2.79;65.71;93398.02;1621978;87;21108;-48
2022/02/01 05:00:50;;;;;;;55.03;28.23;;;;;;;-2.81;65.71;93396.88;1641725;86;20955;-47
2022/02/01 05:03:17;;;;;;;66.22;30.05;;;;;;;-2.87;65.76;93399.81;1653844;84;21865;-47
2022/02/01 05:05:44;;;;;;;64.42;30.15;;;;;;;-2.92;65.82;93406.38;1645188;85;21550;-48
2022/02/01 05:08:12;;;;;;;63.98;28.52;;;;;;;-2.94;66.15;93408.70;1645419;86;20991;-47
2022/02/01 05:10:40;;;;;;;54.23;26.90;;;;;;;-2.96;65.92;93398.13;1624941;86;21044;-48
2022/02/01 05:16:05;;;;;;;76.57;37.67;;;;;;;-3.15;65.84;93397.30;1669781;83;21174;-47
2022/02/01 05:18:42;;;;;;;118.80;55.10;;;;;;;-3.29;66.12;93405.44;1640592;87;20925;-46
2022/02/01 05:21:10;;;;;;;114.12;58.78;;;;;;;-3.41;66.07;93403.97;1620997;86;21463;-46
2022/02/01 05:23:32;;;;;;;121.53;58.33;;;;;;;-3.46;66.66;93415.13;1596289;88;20975;-48
2022/02/01 05:26:00;;;;;;;140.28;65.65;;;;;;;-3.38;67.00;93419.30;1596395;86;21051;-47
2022/02/01 05:28:26;;;;;;;115.92;60.08;;;;;;;-3.24;66.78;93423.87;1600969;88;22382;-48
2022/02/01 05:31:00;;;;;;;120.82;60.25;;;;;;;-3.14;66.81;93425.15;1617888;87;21057;-48
2022/02/01 05:33:21;;;;;;;117.13;61.42;;;;;;;-3.04;66.32;93427.00;1661637;84;21695;-47
2022/02/01 05:35:48;;;;;;;151.20;65.30;;;;;;;-2.98;66.31;93429.47;1675813;83;21087;-52
2022/02/01 05:38:15;;;;;;;146.47;70.95;;;;;;;-2.82;66.36;93425.72;1672259;84;21054;-52
2022/02/01 05:40:42;;;;;;;155.27;82.15;;;;;;;-2.70;65.69;93432.55;1674577;84;21155;-49
2022/02/01 05:43:14;;;;;;;140.97;71.87;;;;;;;-2.70;65.56;93436.00;1635803;84;21073;-49
2022/02/01 05:45:37;;;;;;;145.30;77.22;;;;;;;-2.63;65.59;93445.38;1643792;86;21102;-47
2022/02/01 05:48:06;;;;;;;129.63;66.62;;;;;;;-2.56;65.32;93452.05;1617836;88;21074;-47
2022/02/01 05:50:35;;;;;;;121.57;58.60;;;;;;;-2.54;64.95;93463.18;1618320;88;20963;-47
2022/02/01 05:53:02;;;;;;;150.95;70.95;;;;;;;-2.56;64.77;93478.96;1646083;84;21994;-47
2022/02/01 05:55:28;;;;;;;141.73;72.20;;;;;;;-2.61;64.61;93483.42;1673459;83;21082;-48
2022/02/01 05:57:55;;;;;;;158.20;80.17;;;;;;;-2.74;64.81;93490.42;1679125;83;21125;-47
2022/02/01 06:00:22;;;;;;;153.05;73.25;;;;;;;-2.83;64.83;93504.88;1621439;86;21174;-47
2022/02/01 06:02:50;;;;;;;154.53;70.67;;;;;;;-2.93;64.92;93520.50;1673843;83;21073;-48
2022/02/01 06:05:17;;;;;;;135.35;65.85;;;;;;;-3.08;65.30;93516.34;1678981;84;21096;-47
2022/02/01 06:07:45;;;;;;;153.57;75.83;;;;;;;-3.18;65.31;93530.61;1676683;83;21137;-47
2022/02/01 06:10:13;;;;;;;144.15;73.25;;;;;;;-3.28;65.79;93536.03;1673205;83;21090;-48
2022/02/01 06:12:48;;;;;;;168.60;85.97;;;;;;;-3.24;66.35;93544.84;1676982;84;21110;-47
2022/02/01 06:15:19;;;;;;;132.60;67.15;;;;;;;-3.09;66.60;93544.39;1673729;83;21046;-49
2022/02/01 06:17:46;;;;;;;187.40;94.20;;;;;;;-2.96;65.97;93550.09;1670048;84;21222;-48
2022/02/01 06:20:13;;;;;;;204.07;99.60;;;;;;;-2.99;65.92;93539.56;1627739;86;21119;-48
2022/02/01 06:22:41;;;;;;;188.93;95.47;;;;;;;-3.01;66.03;93536.50;1678029;83;21663;-49
2022/02/01 06:25:10;;;;;;;177.80;91.63;;;;;;;-3.01;66.08;93536.50;1676235;83;21092;-49
2022/02/01 06:27:37;;;;;;;130.37;65.90;;;;;;;-3.00;66.25;93547.45;1675906;83;21562;-49
2022/02/01 06:30:07;;;;;;;141.37;74.15;;;;;;;-2.95;66.39;93556.45;1679063;81;21586;-49
2022/02/01 06:32:38;;;;;;;176.65;87.70;;;;;;;-2.90;66.69;93547.20;1668958;83;21024;-48
2022/02/01 06:35:07;;;;;;;176.10;92.40;;;;;;;-2.80;66.65;93560.61;1668593;84;21166;-49
2022/02/01 06:37:34;;;;;;;209.00;100.62;;;;;;;-2.72;66.51;93549.98;1678854;82;21070;-49
2022/02/01 06:40:04;;;;;;;206.85;102.80;;;;;;;-2.63;66.20;93559.75;1670681;84;21044;-48
2022/02/01 06:42:35;;;;;;;198.13;102.40;;;;;;;-2.52;66.14;93557.75;1648816;85;22150;-51
2022/02/01 06:45:03;;;;;;;189.47;100.82;;;;;;;-2.43;65.56;93562.70;1633525;85;21131;-49
2022/02/01 06:47:29;;;;;;;251.58;122.58;;;;;;;-2.38;65.52;93564.41;1633280;85;20987;-48
2022/02/01 06:49:57;;;;;;;260.32;127.35;;;;;;;-2.35;65.44;93564.21;1653058;84;22243;-50
2022/02/01 06:52:24;;;;;;;254.03;124.30;;;;;;;-2.26;64.85;93573.38;1653482;84;21303;-48
2022/02/01 06:54:50;;;;;;;265.50;126.42;;;;;;;-2.30;64.46;93572.61;1687999;83;21119;-52
2022/02/01 06:57:17;;;;;;;303.55;131.20;;;;;;;-2.42;64.62;93583.08;1679944;83;21120;-51
2022/02/01 06:59:44;;;;;;;268.20;127.58;;;;;;;-2.48;64.67;93582.72;1682147;83;21154;-49
2022/02/01 07:02:10;;;;;;;312.45;147.28;;;;;;;-2.52;64.84;93581.23;1665733;83;21088;-50
2022/02/01 07:04:37;;;;;;;380.90;168.00;;;;;;;-2.48;64.70;93580.63;1679294;83;21175;-53
2022/02/01 07:07:04;;;;;;;402.70;174.30;;;;;;;-2.49;64.37;93589.27;1674112;83;21117;-50
2022/02/01 07:09:33;;;;;;;349.32;152.55;;;;;;;-2.43;64.15;93589.06;1685600;82;20985;-49
2022/02/01 07:12:00;;;;;;;281.20;128.95;;;;;;;-2.31;63.84;93598.01;1673225;83;21048;-48
2022/02/01 07:14:27;;;;;;;277.68;123.60;;;;;;;-2.30;63.49;93593.41;1662035;85;20984;-49
2022/02/01 07:16:54;;;;;;;312.38;148.00;;;;;;;-2.39;63.57;93603.27;1642992;85;21076;-51
2022/02/01 07:19:20;;;;;;;301.42;146.80;;;;;;;-2.39;63.70;93601.13;1630988;86;22563;-49
2022/02/01 07:21:48;;;;;;;256.20;134.78;;;;;;;-2.29;63.98;93596.28;1656129;85;22117;-50
2022/02/01 07:24:17;;;;;;;273.52;133.07;;;;;;;-2.09;63.97;93592.70;1628110;85;21966;-48
2022/02/01 07:26:54;;;;;;;236.20;121.75;;;;;;;-1.92;63.55;93591.77;1647203;84;21082;-48
2022/02/01 07:29:12;;;;;;;193.85;105.43;;;;;;;-1.85;63.39;93585.57;1682978;83;21091;-51
2022/02/01 07:31:39;;;;;;;170.50;90.67;;;;;;;-1.73;63.52;93587.23;1641039;83;22218;-48
2022/02/01 07:34:05;;;;;;;129.42;67.90;;;;;;;-1.57;63.38;93588.80;1672666;82;21106;-49
2022/02/01 07:36:32;;;;;;;127.90;65.32;;;;;;;-1.46;63.21;93592.17;1685834;83;21059;-49
2022/02/01 07:38:58;;;;;;;162.53;84.13;;;;;;;-1.30;63.33;93593.16;1652701;84;21095;-50
2022/02/01 07:41:25;;;;;;;178.02;93.55;;;;;;;-0.98;63.11;93588.81;1655419;84;21087;-50
2022/02/01 07:43:53;;;;;;;163.35;80.05;;;;;;;-0.74;62.60;93586.41;1681599;83;21466;-49
2022/02/01 07:46:20;;;;;;;142.05;70.83;;;;;;;-0.55;62.21;93588.48;1675185;83;21065;-48
2022/02/01 07:48:47;;;;;;;150.00;76.90;;;;;;;-0.40;62.10;93592.55;1674366;83;21083;-48
2022/02/01 07:51:13;;;;;;;99.32;53.90;;;;;;;-0.17;62.14;93592.61;1657094;84;21898;-47
2022/02/01 07:53:40;;;;;;;83.62;44.50;;;;;;;0.09;61.43;93589.91;1671823;84;21510;-48
2022/02/01 07:56:06;;;;;;;82.65;40.05;;;;;;;0.16;60.88;93590.58;1664636;84;21678;-48
2022/02/01 07:58:35;;;;;;;104.85;51.53;;;;;;;0.16;60.60;93600.04;1657459;84;21418;-48
2022/02/01 08:01:01;;;;;;;119.60;56.60;;;;;;;0.10;60.36;93591.45;1689707;81;21093;-54
2022/02/01 08:03:28;;;;;;;120.85;58.48;;;;;;;0.08;60.38;93581.03;1676937;83;21113;-46
2022/02/01 08:05:55;;;;;;;104.75;54.30;;;;;;;0.10;60.36;93577.92;1690152;83;22085;-48
2022/02/01 08:08:21;;;;;;;101.22;53.23;;;;;;;0.14;60.38;93579.41;1699843;83;21767;-47
2022/02/01 08:10:52;;;;;;;123.25;59.45;;;;;;;0.16;60.28;93574.36;1687618;83;20998;-49
2022/02/01 08:19:03;;;;;;;83.05;44.60;;;;;;;0.33;60.05;93574.67;1682623;83;20213;-51
2022/02/01 08:21:27;;;;;;;67.17;35.98;;;;;;;0.26;59.99;93574.77;1689216;82;22349;-51
2022/02/01 08:23:52;;;;;;;61.30;31.85;;;;;;;0.22;59.82;93580.07;1676861;83;21088;-49
2022/02/01 08:26:19;;;;;;;59.58;30.08;;;;;;;0.22;59.80;93579.47;1662332;83;21607;-47
2022/02/01 08:28:47;;;;;;;63.00;32.17;;;;;;;0.15;59.46;93580.16;1669356;84;21279;-49
2022/02/01 08:31:16;;;;;;;87.78;44.95;;;;;;;0.04;59.53;93589.03;1672540;83;21041;-47
2022/02/01 08:33:43;;;;;;;125.90;57.65;;;;;;;-0.14;59.85;93593.92;1670433;82;21086;-47
2022/02/01 08:36:10;;;;;;;141.62;72.55;;;;;;;-0.17;60.08;93598.02;1691928;82;21573;-48
2022/02/01 08:38:36;;;;;;;97.85;48.33;;;;;;;-0.05;60.23;93598.83;1665331;84;20994;-47
2022/02/01 08:41:03;;;;;;;104.55;48.98;;;;;;;0.15;60.04;93588.27;1673321;84;21042;-51
2022/02/01 08:43:31;;;;;;;99.55;48.92;;;;;;;0.36;59.59;93590.64;1652261;83;21101;-50
2022/02/01 08:45:58;;;;;;;80.42;41.88;;;;;;;0.63;59.23;93596.18;1664401;82;22330;-48
2022/02/01 08:48:25;;;;;;;65.87;34.80;;;;;;;0.92;58.93;93599.94;1682011;84;21070;-51
2022/02/01 08:50:52;;;;;;;55.48;30.05;;;;;;;1.19;57.95;93597.14;1680261;83;21108;-47
2022/02/01 08:53:24;;;;;;;53.55;27.52;;;;;;;1.37;57.61;93588.86;1654711;84;21121;-48
2022/02/01 08:58:23;;;;;;;50.48;25.55;;;;;;;1.68;56.76;93596.92;1639711;85;21179;-48
2022/02/01 09:00:50;;;;;;;41.58;21.90;;;;;;;1.90;56.54;93587.16;1615366;86;21044;-48
2022/02/01 09:03:17;;;;;;;29.50;19.55;;;;;;;2.17;56.30;93591.80;1638650;85;22227;-48
2022/02/01 09:05:51;;;;;;;35.63;19.80;;;;;;;2.46;55.52;93593.44;1625097;86;21082;-47
2022/02/01 09:08:20;;;;;;;39.73;21.82;;;;;;;2.70;55.01;93595.41;1648218;84;21713;-48
2022/02/01 09:10:48;;;;;;;41.53;21.52;;;;;;;2.86;54.48;93592.68;1655904;84;49602;-47
2022/02/01 09:13:15;;;;;;;35.20;22.05;;;;;;;3.00;54.27;93587.64;1616870;86;21964;-47
2022/02/01 09:15:42;;;;;;;34.98;21.40;;;;;;;3.25;54.32;93580.22;1633424;85;20999;-47
2022/02/01 09:18:10;;;;;;;37.40;21.52;;;;;;;3.38;54.27;93587.22;1589976;87;21070;-48
2022/02/01 09:20:37;;;;;;;43.92;26.75;;;;;;;3.48;53.85;93589.64;1621968;86;22306;-47
2022/02/01 09:23:04;;;;;;;42.48;28.52;;;;;;;3.57;53.40;93593.88;1654444;84;21120;-48
2022/02/01 09:25:31;;;;;;;40.85;25.85;;;;;;;3.73;53.31;93592.43;1651091;85;21012;-47
2022/02/01 09:27:59;;;;;;;41.30;23.77;;;;;;;3.98;53.02;93594.45;1672006;83;21181;-51
2022/02/01 09:30:26;;;;;;;52.90;33.33;;;;;;;4.23;52.39;93600.69;1670275;83;22479;-50
2022/02/01 09:32:53;;;;;;;37.65;26.52;;;;;;;4.21;51.22;93597.64;1676706;83;21651;-47
2022/02/01 09:35:20;;;;;;;33.30;22.95;;;;;;;4.08;51.21;93592.03;1675327;83;21230;-48
2022/02/01 09:37:48;;;;;;;29.00;18.75;;;;;;;4.04;51.21;93596.20;1691102;83;21060;-47
2022/02/01 09:40:15;;;;;;;28.73;19.67;;;;;;;4.05;51.14;93592.28;1678801;83;21132;-47
2022/02/01 09:42:42;;;;;;;40.40;23.87;;;;;;;4.18;50.89;93588.21;1691202;83;21019;-49
2022/02/01 09:45:09;;;;;;;65.57;32.78;;;;;;;4.47;50.46;93586.16;1657956;84;21142;-48
2022/02/01 09:47:42;;;;;;;59.27;31.07;;;;;;;4.87;49.97;93578.45;1623578;86;21090;-48
2022/02/01 09:50:09;;;;;;;65.85;36.20;;;;;;;5.42;49.08;93566.84;1671540;83;21045;-48
2022/02/01 09:52:39;;;;;;;67.55;38.25;;;;;;;5.67;48.32;93569.44;1652750;84;22262;-48
2022/02/01 09:55:07;;;;;;;91.10;46.85;;;;;;;5.87;47.62;93564.45;1661229;84;21081;-49
2022/02/01 09:57:43;;;;;;;76.35;41.75;;;;;;;6.22;47.17;93557.09;1660233;84;21096;-48
2022/02/01 10:00:15;;;;;;;73.12;39.10;;;;;;;6.62;45.93;93561.95;1662854;83;21481;-48
2022/02/01 10:02:42;;;;;;;53.08;32.67;;;;;;;6.90;45.42;93552.61;1661598;84;21570;-51
2022/02/01 10:05:11;;;;;;;53.63;29.52;;;;;;;7.18;44.65;93554.94;1644962;84;21194;-47
2022/02/01 10:07:57;;;;;;;34.65;20.70;;;;;;;7.35;44.26;93549.95;1639824;85;21194;-49
2022/02/01 10:10:29;;;;;;;26.45;15.23;;;;;;;7.68;43.44;93539.30;1636169;83;21539;-49
2022/02/01 10:13:12;;;;;;;30.30;15.95;;;;;;;7.99;42.81;93535.77;1683834;83;21138;-47
2022/02/01 10:15:34;;;;;;;19.62;12.65;;;;;;;8.24;42.28;93534.68;1684491;83;21066;-47
2022/02/01 10:18:03;;;;;;;18.73;12.03;;;;;;;8.29;41.70;93532.05;1675987;83;21117;-48
2022/02/01 10:20:39;;;;;;;22.75;14.85;;;;;;;8.29;41.51;93545.01;1679655;83;21057;-50
2022/02/01 10:23:25;;;;;;;24.27;15.00;;;;;;;8.09;41.70;93544.73;1679673;82;21065;-47
2022/02/01 10:26:02;;;;;;;21.35;13.83;;;;;;;7.87;42.11;93535.33;1682442;83;21141;-49
2022/02/01 10:29:04;;;;;;;24.75;15.25;;;;;;;7.78;42.15;93536.72;1682473;83;21034;-50
2022/02/01 10:31:41;;;;;;;21.52;12.18;;;;;;;7.62;42.33;93534.89;1654079;84;21705;-48
2022/02/01 10:37:23;;;;;;;14.18;8.70;;;;;;;7.29;42.28;93537.48;1670759;83;21053;-48
2022/02/01 10:39:57;;;;;;;12.07;8.25;;;;;;;6.92;42.36;93535.77;1646856;84;21153;-48
2022/02/01 10:42:26;;;;;;;17.90;9.48;;;;;;;6.70;42.88;93526.30;1628454;86;21058;-47
2022/02/01 10:44:55;;;;;;;18.87;10.10;;;;;;;6.49;43.07;93531.24;1641174;85;21162;-48
2022/02/01 10:47:43;;;;;;;16.37;10.93;;;;;;;6.20;43.53;93523.23;1628812;85;21072;-49
2022/02/01 10:50:16;;;;;;;28.23;14.40;;;;;;;5.91;44.29;93524.14;1644042;85;21537;-50
2022/02/01 10:52:48;;;;;;;29.72;17.37;;;;;;;5.82;45.46;93526.84;1628824;86;21215;-48
2022/02/01 10:55:16;;;;;;;;;;;;;;;5.91;45.83;93526.28;1652409;85;21054;-46
2022/02/01 10:57:43;;;;;;;30.15;14.98;;;;;;;5.91;46.01;93533.70;1656119;85;20960;-47
2022/02/01 11:00:13;;;;;;;38.90;21.65;;;;;;;5.83;45.93;93532.45;1657976;84;21009;-48
2022/02/01 11:02:44;;;;;;;22.17;11.80;;;;;;;5.91;46.29;93522.78;1610687;86;21030;-47
2022/02/01 11:05:13;;;;;;;20.32;12.10;;;;;;;6.00;45.81;93518.75;1652256;85;21145;-46
2022/02/01 11:07:41;;;;;;;17.50;11.15;;;;;;;6.11;44.89;93517.13;1652102;85;21118;-46
2022/02/01 11:10:09;;;;;;;23.40;12.25;;;;;;;6.19;44.73;93506.70;1665296;84;21070;-49
2022/02/01 11:12:39;;;;;;;26.37;15.28;;;;;;;6.28;44.81;93509.45;1664558;83;21038;-48
2022/02/01 11:15:20;;;;;;;28.05;16.25;;;;;;;6.30;44.86;93506.44;1676679;83;21110;-48
2022/02/01 11:17:50;;;;;;;21.57;13.88;;;;;;;6.48;44.58;93505.14;1650355;84;21124;-47
2022/02/01 11:20:28;;;;;;;27.32;14.93;;;;;;;6.61;44.75;93495.45;1604593;86;21077;-47
2022/02/01 11:23:04;;;;;;;23.60;14.45;;;;;;;6.58;44.71;93495.77;1618546;86;21118;-47
2022/02/01 11:25:49;;;;;;;37.23;20.62;;;;;;;6.53;44.82;93493.61;1638141;86;21018;-48
2022/02/01 11:28:39;;;;;;;34.70;19.73;;;;;;;6.35;45.14;93499.64;1623735;86;21103;-47
2022/02/01 11:31:01;;;;;;;27.73;13.85;;;;;;;6.22;45.08;93497.02;1686576;83;21090;-48
2022/02/01 11:33:44;;;;;;;25.55;14.10;;;;;;;6.00;45.45;93501.00;1688093;84;21068;-47
2022/02/01 11:36:12;;;;;;;29.77;15.55;;;;;;;5.91;45.85;93497.63;1651233;85;21037;-45
2022/02/01 11:38:55;;;;;;;21.70;11.97;;;;;;;5.84;45.59;93497.13;1606183;85;22121;-46
2022/02/01 11:41:33;;;;;;;15.93;10.47;;;;;;;5.74;46.22;93490.83;1652576;85;21150;-49
2022/02/01 11:44:22;;;;;;;14.65;8.85;;;;;;;5.63;46.19;93485.00;1655030;84;21131;-49
2022/02/01 11:47:04;;;;;;;14.78;9.53;;;;;;;5.62;46.08;93481.38;1649348;85;21093;-48
2022/02/01 11:49:33;;;;;;;34.35;16.35;;;;;;;5.62;46.22;93478.64;1661046;84;21010;-51
2022/02/01 11:52:10;;;;;;;25.40;14.40;;;;;;;5.57;45.52;93477.86;1647085;86;21152;-48
2022/02/01 11:54:38;;;;;;;39.27;21.73;;;;;;;5.60;46.24;93485.15;1649004;85;21428;-47
2022/02/01 11:57:26;;;;;;;42.83;21.95;;;;;;;5.66;45.89;93486.08;1658921;84;21131;-48
2022/02/01 12:00:09;;;;;;;22.87;12.75;;;;;;;5.67;46.23;93476.69;1648498;85;21009;-47
2022/02/01 12:02:39;;;;;;;16.97;11.63;;;;;;;5.74;46.22;93470.96;1657689;83;21058;-48
2022/02/01 12:05:14;;;;;;;16.00;9.73;;;;;;;5.75;46.16;93477.97;1659943;85;21295;-46
2022/02/01 12:07:51;;;;;;;20.68;10.03;;;;;;;5.82;45.10;93470.28;1676017;84;21399;-47
2022/02/01 12:10:17;;;;;;;19.62;10.82;;;;;;;5.94;44.51;93468.69;1669688;84;22634;-48
2022/02/01 12:12:46;;;;;;;18.75;10.53;;;;;;;5.94;44.96;93471.42;1675221;83;21014;-47
2022/02/01 12:15:14;;;;;;;25.12;15.30;;;;;;;5.91;45.31;93477.75;1678804;82;21093;-51
2022/02/01 12:17:49;;;;;;;28.15;16.93;;;;;;;5.85;45.20;93479.55;1690084;83;21037;-50
2022/02/01 12:20:17;;;;;;;33.90;16.85;;;;;;;5.83;45.21;93474.52;1685348;83;21040;-49
2022/02/01 12:23:00;;;;;;;35.70;17.87;;;;;;;5.79;45.32;93478.62;1684525;81;21110;-48
2022/02/01 12:25:29;;;;;;;37.42;19.45;;;;;;;5.76;45.12;93479.48;1671023;81;21170;-47
2022/02/01 12:27:56;;;;;;;25.85;15.05;;;;;;;5.71;45.71;93490.95;1685552;83;21056;-49
2022/02/01 12:30:23;;;;;;;23.95;13.38;;;;;;;5.63;45.54;93489.09;1667960;83;21029;-46
2022/02/01 12:32:55;;;;;;;18.65;11.12;;;;;;;5.66;45.80;93486.08;1683114;82;21073;-50
2022/02/01 12:35:36;;;;;;;27.13;11.78;;;;;;;5.66;45.80;93488.81;1673169;83;21120;-47
2022/02/01 12:38:19;;;;;;;21.50;11.38;;;;;;;5.58;45.96;93486.20;1682652;83;21713;-49
2022/02/01 12:40:38;;;;;;;32.85;16.12;;;;;;;5.52;45.85;93478.41;1629784;85;21062;-48